Portada
METAR-TAF:

METAR-TAF

Aeroports :

Asahikawa-airbase, Japó

latitud: 43-48N, longitud: 142-22E, altitud: 115 m

Observació

L'informe es va fer fa 51 minuts, a les 00:20 UTC
Vent 25 kt del Oest/Sud-Oest amb ràfegues de 38 kt
Temperatura 8°C
Humitat 66%
Pressió 996 hPa
Visibilitat 10 km o més
Escasses núvols a una alçada de 1000 ft
Núvols disperses a una alçada de 3000 ft
Cel ennuvolat a una alçada de 4500 ft
xàfecs de pluja

METAR: RJCA 140020Z 25025G38KT 9999 -SHRA FEW010 SCT030 BKN045 08/02 Q0996 RMK 1ST010 3CU030 5CU045 A2941

Hora: 10:11 (01:11 UTC)


TAF: manca

Observacions i pronòstics meteorològics de més de 4000 aeroports (METAR i TAF).

Les estacions disponibles són els punts grocs i vermells al mapa.

Posi el ratolí al punt desitjat per veure el nom de l'estació.

Feu clic per veure les observacions i els pronòstics meteorològics.

Per canviar el mapa: feu clic els botons verds amb una creu de color negre per apropar; al botó verd amb un guió per allunyar la imatge; o en les fletxes verdes per a mapes adjacents.


METAR-TAF: